createdAt,value
2019-02-21T00:02:26.956Z,3.90
2019-02-21T00:04:56.633Z,3.90
2019-02-21T00:07:26.365Z,3.90
2019-02-21T00:09:56.073Z,3.90
2019-02-21T00:12:26.339Z,3.80
2019-02-21T00:14:56.261Z,3.80
2019-02-21T00:17:26.193Z,3.80
2019-02-21T00:19:56.090Z,3.80
2019-02-21T00:22:25.816Z,3.70
2019-02-21T00:24:55.474Z,3.60
2019-02-21T00:27:25.198Z,3.60
2019-02-21T00:29:54.883Z,3.50
2019-02-21T00:32:24.582Z,3.50
2019-02-21T00:34:54.522Z,3.50
2019-02-21T00:37:24.482Z,3.50
2019-02-21T00:39:54.491Z,3.50
2019-02-21T00:42:24.436Z,3.40
2019-02-21T00:44:54.463Z,3.30
2019-02-21T00:47:24.404Z,3.30
2019-02-21T00:49:54.395Z,3.20
2019-02-21T00:52:24.489Z,3.20
2019-02-21T00:54:54.476Z,3.10
2019-02-21T00:57:24.140Z,3.10
2019-02-21T00:59:54.469Z,3.00
2019-02-21T01:02:24.162Z,3.00
2019-02-21T01:04:54.131Z,3.00
2019-02-21T01:07:24.138Z,3.00
2019-02-21T01:09:53.853Z,3.10
2019-02-21T01:12:23.555Z,3.10
2019-02-21T01:14:54.882Z,3.00
2019-02-21T01:17:24.598Z,3.00
2019-02-21T01:19:54.249Z,3.10
2019-02-21T01:22:23.939Z,3.10
2019-02-21T01:24:53.673Z,3.10
2019-02-21T01:27:23.371Z,3.10
2019-02-21T01:29:53.114Z,3.10
2019-02-21T01:32:22.808Z,3.10
2019-02-21T01:34:52.474Z,3.10
2019-02-21T01:37:22.181Z,3.00
2019-02-21T01:39:51.891Z,2.90
2019-02-21T01:42:21.600Z,2.90
2019-02-21T01:44:51.329Z,2.80
2019-02-21T01:47:20.993Z,2.80
2019-02-21T01:49:50.710Z,2.80
2019-02-21T01:52:20.477Z,2.90
2019-02-21T01:54:50.156Z,3.00
2019-02-21T01:57:20.006Z,3.10
2019-02-21T01:59:49.687Z,3.20
2019-02-21T02:02:19.396Z,3.20
2019-02-21T02:04:49.102Z,3.20
2019-02-21T02:07:19.008Z,3.20
2019-02-21T02:09:48.716Z,3.20
2019-02-21T02:12:18.389Z,3.30
2019-02-21T02:14:48.058Z,3.30
2019-02-21T02:17:17.764Z,3.30
2019-02-21T02:19:47.433Z,3.50
2019-02-21T02:22:17.157Z,3.50
2019-02-21T02:24:46.920Z,3.60
2019-02-21T02:27:16.617Z,3.60
2019-02-21T02:29:46.405Z,3.70
2019-02-21T02:32:16.106Z,3.70
2019-02-21T02:34:45.827Z,3.70
2019-02-21T02:37:15.508Z,3.80
2019-02-21T02:39:45.229Z,3.80
2019-02-21T02:42:14.935Z,3.80
2019-02-21T02:44:44.633Z,3.80
2019-02-21T02:47:14.320Z,3.70
2019-02-21T02:49:44.064Z,3.80
2019-02-21T02:52:13.765Z,3.80
2019-02-21T02:54:43.471Z,3.90
2019-02-21T02:57:13.139Z,4.00
2019-02-21T02:59:42.875Z,4.00
2019-02-21T03:02:12.576Z,4.10
2019-02-21T03:04:42.408Z,4.20
2019-02-21T03:07:12.096Z,4.30
2019-02-21T03:09:41.880Z,4.40
2019-02-21T03:12:11.551Z,4.50
2019-02-21T03:14:41.242Z,4.60
2019-02-21T03:17:10.987Z,4.60
2019-02-21T03:19:40.706Z,4.60
2019-02-21T03:22:10.335Z,4.60
2019-02-21T03:24:40.311Z,4.60
2019-02-21T03:27:10.013Z,4.70
2019-02-21T03:29:39.689Z,4.70
2019-02-21T03:32:09.400Z,4.70
2019-02-21T03:34:39.132Z,4.80
2019-02-21T03:37:08.830Z,4.80
2019-02-21T03:39:38.539Z,4.80
2019-02-21T03:42:08.236Z,4.80
2019-02-21T03:44:37.905Z,4.80
2019-02-21T03:47:07.611Z,4.80
2019-02-21T03:49:37.338Z,4.90
2019-02-21T03:52:07.656Z,4.90
2019-02-21T03:54:37.391Z,4.90
2019-02-21T03:57:07.130Z,4.90
2019-02-21T03:59:36.916Z,4.90
2019-02-21T04:02:06.651Z,4.90
2019-02-21T04:04:36.509Z,4.90
2019-02-21T04:07:06.428Z,5.00
2019-02-21T04:09:36.130Z,5.00
2019-02-21T04:12:05.861Z,5.00
2019-02-21T04:14:35.740Z,5.00
2019-02-21T04:17:05.446Z,5.00
2019-02-21T04:19:35.113Z,5.00
2019-02-21T04:22:04.792Z,5.00
2019-02-21T04:24:34.478Z,5.00
2019-02-21T04:27:04.202Z,5.00
2019-02-21T04:29:35.856Z,5.00
2019-02-21T04:32:16.061Z,5.00
2019-02-21T04:34:36.887Z,5.00
2019-02-21T04:37:06.581Z,5.00
2019-02-21T04:39:36.325Z,5.00
2019-02-21T04:42:06.494Z,5.10
2019-02-21T04:44:36.173Z,5.00
2019-02-21T04:47:05.949Z,5.10
2019-02-21T04:49:37.499Z,5.10
2019-02-21T04:52:07.193Z,5.10
2019-02-21T04:54:36.915Z,5.10
2019-02-21T04:57:06.635Z,5.10
2019-02-21T04:59:38.373Z,5.10
2019-02-21T05:02:08.112Z,5.10
2019-02-21T05:04:37.779Z,5.10
2019-02-21T05:07:07.518Z,5.10
2019-02-21T05:09:37.209Z,5.10
2019-02-21T05:12:06.862Z,5.10
2019-02-21T05:14:38.598Z,5.10
2019-02-21T05:17:08.295Z,5.10
2019-02-21T05:19:40.307Z,5.10
2019-02-21T05:22:10.075Z,5.00
2019-02-21T05:24:39.749Z,5.00
2019-02-21T05:27:13.764Z,5.00
2019-02-21T05:29:43.506Z,5.00
2019-02-21T05:32:41.046Z,5.00
2019-02-21T05:35:22.838Z,5.10
2019-02-21T05:38:04.383Z,5.10
2019-02-21T05:40:58.738Z,5.00
2019-02-21T05:43:47.377Z,5.00
2019-02-21T05:46:44.923Z,5.00
2019-02-21T05:49:45.806Z,5.00
2019-02-21T05:52:28.603Z,5.00
2019-02-21T05:55:15.672Z,5.00
2019-02-21T05:58:13.080Z,5.00
2019-02-21T06:00:54.385Z,5.00
2019-02-21T06:03:57.990Z,5.10
2019-02-21T06:06:43.139Z,5.10
2019-02-21T06:09:18.027Z,5.20
2019-02-21T06:12:09.496Z,5.20
2019-02-21T06:14:54.928Z,5.20
2019-02-21T06:17:43.484Z,5.20
2019-02-21T06:20:29.186Z,5.20
2019-02-21T06:23:11.205Z,5.20
2019-02-21T06:26:07.747Z,5.30
2019-02-21T06:28:57.528Z,5.30
2019-02-21T06:31:27.254Z,5.30
2019-02-21T06:33:57.980Z,5.30
2019-02-21T06:36:27.733Z,5.30
2019-02-21T06:38:57.436Z,5.40
2019-02-21T06:41:29.752Z,5.40
2019-02-21T06:43:58.539Z,5.40
2019-02-21T06:46:28.268Z,5.40
2019-02-21T06:48:57.959Z,5.40
2019-02-21T06:51:27.695Z,5.40
2019-02-21T06:53:57.344Z,5.40
2019-02-21T06:56:27.062Z,5.50
2019-02-21T06:58:56.750Z,5.50
2019-02-21T07:01:29.409Z,5.50
2019-02-21T07:03:58.415Z,5.60
2019-02-21T07:06:31.859Z,5.60
2019-02-21T07:08:59.967Z,5.70
2019-02-21T07:11:29.931Z,5.70
2019-02-21T07:13:59.585Z,5.80
2019-02-21T07:16:29.276Z,5.80
2019-02-21T07:18:58.973Z,5.80
2019-02-21T07:21:28.646Z,5.90
2019-02-21T07:23:58.365Z,5.90
2019-02-21T07:26:28.034Z,5.90
2019-02-21T07:28:58.389Z,6.00
2019-02-21T07:31:29.380Z,6.00
2019-02-21T07:34:01.666Z,6.10
2019-02-21T07:36:31.179Z,6.20
2019-02-21T07:39:13.923Z,6.30
2019-02-21T07:41:32.253Z,6.30
2019-02-21T07:44:11.736Z,6.30
2019-02-21T07:46:33.759Z,6.30
2019-02-21T07:49:03.445Z,6.30
2019-02-21T07:51:35.735Z,6.30
2019-02-21T07:54:04.757Z,6.30
2019-02-21T07:56:41.657Z,6.40
2019-02-21T07:59:05.786Z,6.40
2019-02-21T08:01:35.470Z,6.40
2019-02-21T08:04:05.237Z,6.40
2019-02-21T08:06:34.924Z,6.50
2019-02-21T08:09:05.819Z,6.50
2019-02-21T08:11:35.503Z,6.60
2019-02-21T08:14:05.223Z,6.60
2019-02-21T08:16:34.983Z,6.70
2019-02-21T08:19:04.643Z,6.90
2019-02-21T08:21:34.484Z,7.00
2019-02-21T08:24:04.150Z,7.10
2019-02-21T08:26:33.939Z,7.10
2019-02-21T08:29:05.979Z,7.10
2019-02-21T08:31:35.026Z,7.20
2019-02-21T08:34:17.616Z,7.20
2019-02-21T08:36:47.328Z,7.20
2019-02-21T08:39:17.018Z,7.20
2019-02-21T08:41:46.697Z,7.20
2019-02-21T08:44:16.930Z,7.20
2019-02-21T08:46:46.610Z,7.20
2019-02-21T08:49:16.341Z,7.20
2019-02-21T08:51:46.033Z,7.10
2019-02-21T08:54:16.202Z,7.20
2019-02-21T08:56:46.412Z,7.20
2019-02-21T08:59:16.099Z,7.20
2019-02-21T09:01:45.826Z,7.20
2019-02-21T09:04:26.915Z,7.10
2019-02-21T09:06:47.406Z,7.10
2019-02-21T09:09:17.146Z,7.10
2019-02-21T09:11:46.822Z,7.10
2019-02-21T09:14:17.070Z,7.10
2019-02-21T09:16:46.805Z,7.10
2019-02-21T09:19:16.471Z,7.20
2019-02-21T09:21:46.142Z,7.30
2019-02-21T09:24:35.286Z,7.30
2019-02-21T09:26:48.944Z,7.30
2019-02-21T09:29:19.596Z,7.30
2019-02-21T09:31:49.412Z,7.40
2019-02-21T09:34:21.461Z,7.40
2019-02-21T09:36:50.580Z,7.40
2019-02-21T09:39:20.306Z,7.40
2019-02-21T09:41:49.987Z,7.40
2019-02-21T09:44:19.673Z,7.30
2019-02-21T09:46:49.423Z,7.30
2019-02-21T09:49:19.086Z,7.30
2019-02-21T09:51:48.827Z,7.20
2019-02-21T09:54:19.183Z,7.20
2019-02-21T09:56:52.729Z,7.20
2019-02-21T09:59:20.630Z,7.20
2019-02-21T10:01:50.267Z,7.20
2019-02-21T10:04:19.952Z,7.30
2019-02-21T10:06:49.735Z,7.30
2019-02-21T10:09:19.786Z,7.40
2019-02-21T10:11:49.488Z,7.50
2019-02-21T10:14:21.433Z,7.50
2019-02-21T10:16:50.636Z,7.50
2019-02-21T10:19:20.364Z,7.50
2019-02-21T10:21:50.078Z,7.60
2019-02-21T10:24:19.752Z,7.60
2019-02-21T10:26:49.479Z,7.60
2019-02-21T10:29:19.693Z,7.60
2019-02-21T10:31:49.473Z,7.60
2019-02-21T10:34:21.747Z,7.50
2019-02-21T10:36:50.847Z,7.50
2019-02-21T10:39:20.535Z,7.60
2019-02-21T10:41:50.211Z,7.60
2019-02-21T10:44:19.918Z,7.80
2019-02-21T10:46:49.667Z,7.80
2019-02-21T10:49:19.389Z,7.90
2019-02-21T10:51:49.075Z,7.90
2019-02-21T10:54:20.319Z,8.00
2019-02-21T10:56:50.031Z,7.90
2019-02-21T10:59:19.724Z,7.90
2019-02-21T11:01:49.399Z,7.90
2019-02-21T11:04:19.120Z,7.80
2019-02-21T11:06:48.912Z,7.80
2019-02-21T11:09:22.549Z,7.90
2019-02-21T11:11:52.861Z,7.90
2019-02-21T11:14:22.503Z,7.80
2019-02-21T11:16:52.175Z,7.80
2019-02-21T11:19:21.885Z,7.90
2019-02-21T11:21:51.570Z,7.90
2019-02-21T11:24:21.267Z,7.90
2019-02-21T11:26:50.963Z,7.90
2019-02-21T11:29:20.686Z,7.90
2019-02-21T11:31:50.351Z,7.90
2019-02-21T11:34:20.024Z,7.90
2019-02-21T11:36:49.732Z,7.80
2019-02-21T11:39:19.506Z,7.80
2019-02-21T11:41:49.256Z,7.80
2019-02-21T11:44:18.939Z,7.80
2019-02-21T11:46:48.615Z,7.70
2019-02-21T11:49:18.333Z,7.60
2019-02-21T11:51:48.069Z,7.60
2019-02-21T11:54:26.592Z,7.60
2019-02-21T11:56:49.131Z,7.50
2019-02-21T11:59:18.832Z,7.50
2019-02-21T12:01:48.565Z,7.50
2019-02-21T12:04:18.278Z,7.50
2019-02-21T12:06:47.933Z,7.50
2019-02-21T12:09:17.644Z,7.50
2019-02-21T12:11:47.387Z,7.60
2019-02-21T12:14:17.068Z,7.60
2019-02-21T12:16:46.737Z,7.60
2019-02-21T12:19:17.397Z,7.70
2019-02-21T12:21:58.368Z,7.60
2019-02-21T12:24:18.634Z,7.60
2019-02-21T12:26:48.321Z,7.60
2019-02-21T12:29:18.014Z,7.60
2019-02-21T12:31:47.755Z,7.70
2019-02-21T12:34:17.513Z,7.70
2019-02-21T12:36:47.240Z,7.70
2019-02-21T12:39:16.949Z,7.60
2019-02-21T12:41:46.724Z,7.60
2019-02-21T12:44:16.419Z,7.60
2019-02-21T12:46:46.124Z,7.60
2019-02-21T12:49:15.905Z,7.60
2019-02-21T12:51:45.650Z,7.60
2019-02-21T12:54:15.338Z,7.60
2019-02-21T12:56:45.002Z,7.60
2019-02-21T12:59:14.719Z,7.60
2019-02-21T13:01:44.403Z,7.60
2019-02-21T13:04:14.097Z,7.60
2019-02-21T13:06:43.821Z,7.50
2019-02-21T13:09:14.010Z,7.60
2019-02-21T13:11:43.677Z,7.60
2019-02-21T13:14:13.387Z,7.60
2019-02-21T13:16:43.111Z,7.60
2019-02-21T13:19:12.807Z,7.50
2019-02-21T13:21:42.562Z,7.50
2019-02-21T13:24:12.280Z,7.60
2019-02-21T13:26:42.770Z,7.60
2019-02-21T13:29:12.595Z,7.60
2019-02-21T13:31:43.051Z,7.60
2019-02-21T13:34:12.738Z,7.60
2019-02-21T13:36:42.442Z,7.50
2019-02-21T13:39:13.395Z,7.50
2019-02-21T13:41:43.135Z,7.50
2019-02-21T13:44:12.930Z,7.40
2019-02-21T13:46:42.615Z,7.40
2019-02-21T13:49:12.346Z,7.40
2019-02-21T13:51:41.990Z,7.40
2019-02-21T13:54:11.705Z,7.40
2019-02-21T13:56:41.888Z,7.40
2019-02-21T13:59:11.590Z,7.40
2019-02-21T14:01:41.338Z,7.40
2019-02-21T14:04:10.990Z,7.40
2019-02-21T14:06:40.655Z,7.20
2019-02-21T14:09:10.934Z,7.10
2019-02-21T14:11:40.635Z,7.00
2019-02-21T14:14:10.308Z,7.00
2019-02-21T14:16:46.565Z,7.00
2019-02-21T14:19:11.335Z,6.90
2019-02-21T14:21:43.547Z,7.00
2019-02-21T14:24:12.369Z,6.90
2019-02-21T14:26:42.054Z,6.90
2019-02-21T14:29:11.751Z,6.90
2019-02-21T14:31:41.460Z,6.80
2019-02-21T14:34:11.122Z,6.80
2019-02-21T14:36:40.835Z,6.80
2019-02-21T14:39:10.782Z,6.70
2019-02-21T14:41:40.425Z,6.70
2019-02-21T14:44:10.176Z,6.70
2019-02-21T14:46:39.914Z,6.60
2019-02-21T14:49:09.756Z,6.70
2019-02-21T14:51:39.510Z,6.60
2019-02-21T14:54:09.171Z,6.60
2019-02-21T14:56:38.844Z,6.60
2019-02-21T14:59:08.580Z,6.50
2019-02-21T15:01:38.229Z,6.60
2019-02-21T15:04:07.905Z,6.60
2019-02-21T15:06:37.626Z,6.50
2019-02-21T15:09:07.997Z,6.50
2019-02-21T15:11:38.646Z,6.40
2019-02-21T15:14:08.297Z,6.40
2019-02-21T15:16:38.005Z,6.40
2019-02-21T15:19:07.690Z,6.40
2019-02-21T15:21:37.398Z,6.40
2019-02-21T15:24:07.062Z,6.40
2019-02-21T15:26:36.727Z,6.30
2019-02-21T15:29:06.454Z,6.30
2019-02-21T15:31:36.156Z,6.30
2019-02-21T15:34:05.915Z,6.40
2019-02-21T15:36:38.260Z,6.40
2019-02-21T15:39:08.798Z,6.30
2019-02-21T15:41:38.486Z,6.40
2019-02-21T15:44:08.174Z,6.40
2019-02-21T15:46:37.901Z,6.40
2019-02-21T15:49:07.691Z,6.30
2019-02-21T15:51:37.445Z,6.30
2019-02-21T15:54:07.264Z,6.30
2019-02-21T15:56:36.994Z,6.40
2019-02-21T15:59:07.160Z,6.30
2019-02-21T16:01:46.953Z,6.30
2019-02-21T16:04:08.390Z,6.30
2019-02-21T16:06:48.196Z,6.30
2019-02-21T16:09:16.314Z,6.30
2019-02-21T16:11:41.634Z,6.20
2019-02-21T16:14:11.298Z,6.20
2019-02-21T16:16:40.962Z,6.20
2019-02-21T16:19:10.717Z,6.10
2019-02-21T16:21:40.419Z,6.20
2019-02-21T16:24:10.163Z,6.20
2019-02-21T16:26:39.873Z,6.10
2019-02-21T16:29:09.577Z,6.10
2019-02-21T16:31:39.391Z,6.10
2019-02-21T16:34:09.376Z,6.10
2019-02-21T16:36:39.535Z,6.10
2019-02-21T16:39:09.299Z,6.20
2019-02-21T16:41:39.317Z,6.20
2019-02-21T16:44:09.024Z,6.20
2019-02-21T16:46:38.722Z,6.10
2019-02-21T16:49:08.472Z,6.10
2019-02-21T16:51:38.162Z,6.10
2019-02-21T16:54:07.849Z,6.10
2019-02-21T16:56:37.647Z,6.10
2019-02-21T16:59:07.336Z,6.10
2019-02-21T17:01:37.182Z,6.10
2019-02-21T17:04:06.947Z,6.10
2019-02-21T17:06:36.646Z,6.10
2019-02-21T17:09:07.784Z,6.10
2019-02-21T17:11:37.537Z,6.10
2019-02-21T17:14:07.273Z,6.10
2019-02-21T17:16:36.996Z,6.10
2019-02-21T17:19:06.698Z,6.10
2019-02-21T17:21:36.375Z,6.10
2019-02-21T17:24:06.240Z,6.10
2019-02-21T17:26:35.929Z,6.10
2019-02-21T17:29:05.683Z,6.10
2019-02-21T17:31:37.251Z,6.10
2019-02-21T17:34:06.795Z,6.10
2019-02-21T17:36:36.526Z,6.10
2019-02-21T17:39:07.703Z,6.10
2019-02-21T17:41:37.481Z,6.10
2019-02-21T17:44:07.190Z,6.10
2019-02-21T17:46:36.887Z,6.10
2019-02-21T17:49:06.610Z,6.10
2019-02-21T17:51:37.447Z,6.10
2019-02-21T17:54:07.271Z,6.10
2019-02-21T17:56:37.056Z,6.20
2019-02-21T17:59:06.888Z,6.20
2019-02-21T18:01:36.635Z,6.20
2019-02-21T18:04:06.379Z,6.20
2019-02-21T18:06:36.173Z,6.10
2019-02-21T18:09:06.787Z,6.20
2019-02-21T18:11:36.481Z,6.20
2019-02-21T18:14:07.437Z,6.20
2019-02-21T18:16:38.702Z,6.20
2019-02-21T18:19:08.410Z,6.30
2019-02-21T18:21:38.099Z,6.20
2019-02-21T18:24:07.798Z,6.30
2019-02-21T18:26:37.518Z,6.30
2019-02-21T18:29:07.199Z,6.30
2019-02-21T18:31:36.904Z,6.30
2019-02-21T18:34:07.938Z,6.30
2019-02-21T18:36:37.668Z,6.30
2019-02-21T18:39:08.586Z,6.20
2019-02-21T18:41:38.242Z,6.30
2019-02-21T18:44:07.984Z,6.20
2019-02-21T18:46:37.680Z,6.30
2019-02-21T18:49:07.445Z,6.30
2019-02-21T18:51:37.155Z,6.30
2019-02-21T18:54:06.863Z,6.30
2019-02-21T18:56:36.563Z,6.30
2019-02-21T18:59:06.269Z,6.30
2019-02-21T19:01:35.977Z,6.40
2019-02-21T19:04:05.673Z,6.30
2019-02-21T19:06:35.385Z,6.20
2019-02-21T19:09:06.381Z,6.10
2019-02-21T19:11:36.115Z,6.10
2019-02-21T19:14:06.189Z,6.00
2019-02-21T19:16:35.878Z,5.90
2019-02-21T19:19:05.756Z,5.70
2019-02-21T19:21:35.419Z,5.60
2019-02-21T19:24:05.095Z,5.40
2019-02-21T19:26:34.806Z,5.20
2019-02-21T19:29:04.719Z,5.20
2019-02-21T19:31:34.504Z,5.20
2019-02-21T19:34:04.199Z,5.10
2019-02-21T19:36:33.851Z,5.00
2019-02-21T19:39:05.253Z,4.90
2019-02-21T19:41:35.038Z,4.90
2019-02-21T19:44:08.822Z,4.80
2019-02-21T19:46:36.843Z,4.70
2019-02-21T19:49:06.577Z,4.70
2019-02-21T19:51:36.274Z,4.60
2019-02-21T19:54:06.129Z,4.50
2019-02-21T19:56:35.950Z,4.40
2019-02-21T19:59:05.642Z,4.40
2019-02-21T20:01:35.303Z,4.30
2019-02-21T20:04:05.057Z,4.20
2019-02-21T20:06:34.828Z,4.10
2019-02-21T20:09:05.518Z,4.10
2019-02-21T20:11:36.057Z,4.00
2019-02-21T20:14:19.472Z,4.00
2019-02-21T20:16:49.184Z,3.90
2019-02-21T20:19:18.858Z,3.90
2019-02-21T20:21:48.527Z,3.80
2019-02-21T20:24:18.273Z,3.70
2019-02-21T20:26:47.967Z,3.70
2019-02-21T20:29:17.668Z,3.60
2019-02-21T20:31:47.379Z,3.60
2019-02-21T20:34:17.141Z,3.60
2019-02-21T20:36:50.967Z,3.50
2019-02-21T20:39:18.271Z,3.40
2019-02-21T20:41:47.925Z,3.40
2019-02-21T20:44:17.779Z,3.40
2019-02-21T20:46:47.468Z,3.30
2019-02-21T20:49:17.132Z,3.20
2019-02-21T20:51:46.880Z,3.10
2019-02-21T20:54:16.627Z,3.00
2019-02-21T20:56:46.597Z,3.00
2019-02-21T20:59:16.602Z,3.00
2019-02-21T21:01:46.394Z,2.90
2019-02-21T21:04:16.243Z,2.80
2019-02-21T21:06:45.964Z,2.80
2019-02-21T21:09:15.671Z,2.70
2019-02-21T21:11:45.342Z,2.60
2019-02-21T21:14:15.103Z,2.60
2019-02-21T21:16:44.773Z,2.50
2019-02-21T21:19:14.461Z,2.40
2019-02-21T21:21:44.178Z,2.20
2019-02-21T21:24:13.858Z,2.20
2019-02-21T21:26:43.980Z,2.00
2019-02-21T21:29:13.655Z,2.00
2019-02-21T21:31:43.396Z,1.80
2019-02-21T21:34:13.057Z,1.70
2019-02-21T21:36:42.754Z,1.70
2019-02-21T21:39:14.743Z,1.60
2019-02-21T21:41:44.427Z,1.60
2019-02-21T21:44:14.131Z,1.60
2019-02-21T21:46:43.797Z,1.50
2019-02-21T21:49:13.519Z,1.30
2019-02-21T21:51:43.262Z,1.30
2019-02-21T21:54:12.971Z,1.20
2019-02-21T21:56:42.598Z,1.10
2019-02-21T21:59:12.447Z,1.10
2019-02-21T22:01:42.124Z,1.20
2019-02-21T22:04:11.790Z,1.10
2019-02-21T22:06:41.544Z,1.10
2019-02-21T22:09:11.341Z,1.10
2019-02-21T22:11:42.497Z,1.10
2019-02-21T22:14:12.277Z,1.10
2019-02-21T22:16:42.038Z,1.00
2019-02-21T22:19:11.806Z,1.00
2019-02-21T22:21:41.562Z,1.00
2019-02-21T22:24:11.374Z,1.00
2019-02-21T22:26:41.150Z,1.00
2019-02-21T22:29:10.934Z,0.90
2019-02-21T22:31:40.711Z,0.90
2019-02-21T22:34:10.507Z,0.90
2019-02-21T22:36:40.331Z,0.90
2019-02-21T22:39:16.464Z,0.80
2019-02-21T22:41:41.976Z,0.70
2019-02-21T22:44:11.718Z,0.60
2019-02-21T22:46:41.462Z,0.50
2019-02-21T22:49:11.274Z,0.50
2019-02-21T22:51:41.035Z,0.40
2019-02-21T22:54:10.822Z,0.40
2019-02-21T22:56:40.656Z,0.40
2019-02-21T22:59:10.409Z,0.30
2019-02-21T23:01:45.294Z,0.20
2019-02-21T23:04:24.603Z,0.10
2019-02-21T23:07:07.700Z,0.10
2019-02-21T23:09:37.599Z,0.10
2019-02-21T23:12:07.986Z,0.00
2019-02-21T23:14:40.734Z,0.00
2019-02-21T23:17:10.586Z,-0.10
2019-02-21T23:19:40.366Z,-0.10
2019-02-21T23:22:10.206Z,-0.10
2019-02-21T23:24:40.042Z,0.00
2019-02-21T23:27:09.821Z,0.00
2019-02-21T23:29:39.569Z,0.00
2019-02-21T23:32:09.477Z,0.00
2019-02-21T23:34:45.998Z,0.00
2019-02-21T23:37:15.782Z,-0.10
2019-02-21T23:39:45.553Z,-0.30
2019-02-21T23:42:15.300Z,-0.40
2019-02-21T23:44:45.125Z,-0.40
2019-02-21T23:47:14.867Z,-0.50
2019-02-21T23:49:44.724Z,-0.50
2019-02-21T23:52:14.555Z,-0.50
2019-02-21T23:54:44.295Z,-0.50
2019-02-21T23:57:14.426Z,-0.50
2019-02-21T23:59:44.193Z,-0.50
